Latest Weather Observations for Centre Island

IDD60801

Issued at 11:35 am CST Wednesday 24 September 2014 (issued every 30 minutes, with the page automatically refreshed every 10 minutes)

About weather observations | Map of weather stations | Latest weather observations for NT | Other Formats
Station Details ID: 014703 Name: CENTRE ISLAND Lat: -15.74 Lon: 136.82 Height: 12.2 m
Data from the previous 72 hours. | See also: Recent months at Centre Island
Date/Time
CST
Temp
°C
App
Temp
°C
Dew
Point
Rel
Hum
%
Delta-T
°C
Wind Press
QNH
hPa
Press
MSL
hPa
Rain
since 9 am
mm
Dir
 
Spd
km/h
Gust
km/h
Spd
kts
Gust
kts
24/11:30am 28.6 29.6 21.1 64 5.0 NNE 17 22 9 12 1015.5 1015.5 0.0
24/11:00am 28.1 28.3 21.4 67 4.5 NE 22 30 12 16 1015.5 1015.5 0.0
24/10:30am 28.3 29.3 22.1 69 4.2 NNE 20 35 11 19 1015.8 1015.8 0.0
24/10:00am 28.5 29.4 21.5 66 4.7 NNE 19 24 10 13 1015.8 1015.8 0.0
24/09:30am 28.5 30.2 21.0 64 5.0 N 13 20 7 11 1015.3 1015.3 0.0
24/09:00am 27.5 29.7 21.1 68 4.2 NW 11 17 6 9 1015.4 1015.4 0.0
24/08:30am 25.8 27.5 21.0 75 3.2 N 13 17 7 9 1015.4 1015.4 0.0
24/08:00am 25.2 28.5 21.9 82 2.2 NNW 7 13 4 7 1015.3 1015.3 0.0
24/07:30am 23.7 25.0 21.6 88 1.4 WNW 17 22 9 12 1015.1 1015.1 0.0
24/07:00am 24.1 26.8 22.2 89 1.3 NNE 11 17 6 9 1014.4 1014.4 0.0
24/06:30am 23.6 26.6 22.0 91 1.1 NNE 9 13 5 7 1013.8 1013.8 0.0
24/06:00am 23.6 25.9 22.0 91 1.1 NE 13 17 7 9 1013.6 1013.6 0.0
24/05:30am 23.6 25.8 21.9 90 1.1 ENE 13 17 7 9 1013.2 1013.2 0.0
24/05:00am 23.7 25.9 21.8 89 1.3 NE 13 19 7 10 1013.3 1013.3 0.0
24/04:30am 23.9 26.5 22.0 89 1.3 NE 11 15 6 8 1013.2 1013.2 0.0
24/04:00am 23.7 26.2 21.8 89 1.3 E 11 17 6 9 1013.0 1013.0 0.0
24/03:30am 23.9 25.9 22.2 90 1.1 ENE 15 19 8 10 1012.6 1012.6 0.0
24/03:00am 23.9 25.4 22.0 89 1.3 NE 17 20 9 11 1012.5 1012.5 0.0
24/02:30am 24.0 25.8 21.9 88 1.4 NE 15 19 8 10 1012.6 1012.6 0.0
24/02:00am 24.1 25.5 21.8 87 1.5 NNE 17 22 9 12 1013.1 1013.1 0.0
24/01:30am 24.1 25.4 21.6 86 1.7 NNE 17 22 9 12 1013.3 1013.3 0.0
24/01:00am 24.1 25.9 21.8 87 1.5 NNE 15 19 8 10 1013.5 1013.5 0.0
24/12:30am 24.2 25.6 21.9 87 1.5 NNE 17 20 9 11 1013.9 1013.9 0.0
24/12:00am 24.3 25.5 21.4 84 1.9 NNE 17 24 9 13 1014.1 1014.1 0.0
 
Date/Time
CST
Temp
°C
App
Temp
°C
Dew
Point
Rel
Hum
%
Delta-T
°C
Wind Press
QNH
hPa
Press
MSL
hPa
Rain
since 9 am
mm
Dir
 
Spd
km/h
Gust
km/h
Spd
kts
Gust
kts
23/11:30pm 24.5 25.6 21.2 82 2.2 NNE 17 22 9 12 1014.2 1014.2 0.0
23/11:00pm 24.6 25.4 21.3 82 2.2 NNE 19 24 10 13 1014.2 1014.2 0.0
23/10:30pm 24.8 26.0 21.5 82 2.2 NNE 17 24 9 13 1014.1 1014.1 0.0
23/10:00pm 24.7 26.1 21.8 84 1.9 NNE 17 24 9 13 1014.0 1014.0 0.0
23/09:30pm 24.8 25.8 21.7 83 2.1 NNE 19 22 10 12 1013.8 1013.8 0.0
23/09:00pm 24.7 26.5 21.8 84 1.9 NNE 15 20 8 11 1013.6 1013.6 0.0
23/08:30pm 24.9 25.8 21.6 82 2.2 NNE 19 24 10 13 1013.3 1013.3 0.0
23/08:00pm 25.2 26.3 21.9 82 2.2 NNE 19 26 10 14 1013.0 1013.0 0.0
23/07:30pm 25.2 25.6 21.7 81 2.3 NNE 22 30 12 16 1012.8 1012.8 0.0
23/07:00pm 25.3 25.6 21.6 80 2.5 NNE 22 30 12 16 1012.5 1012.5 0.0
23/06:30pm 25.4 25.9 21.1 77 2.8 NNE 20 28 11 15 1012.3 1012.3 0.0
23/06:00pm 25.7 25.3 20.9 75 3.2 NNE 24 33 13 18 1012.0 1012.0 0.0
23/05:30pm 26.2 25.2 20.5 71 3.7 NNE 26 33 14 18 1011.9 1011.9 0.0
23/05:00pm 26.7 26.2 21.5 73 3.5 NNE 26 35 14 19 1011.6 1011.6 0.0
23/04:30pm 27.0 26.5 21.5 72 3.7 NNE 26 35 14 19 1011.7 1011.7 0.0
23/04:00pm 27.4 26.9 21.4 70 4.0 NNE 26 32 14 17 1011.8 1011.8 0.0
23/03:30pm 27.6 27.0 20.4 65 4.7 NE 24 33 13 18 1011.9 1011.9 0.0
23/03:00pm 27.6 26.1 20.2 64 4.9 NE 28 37 15 20 1011.9 1011.9 0.0
23/02:30pm 28.2 26.3 19.4 59 5.7 NNE 28 43 15 23 1012.2 1012.2 0.0
23/02:03pm 29.1 25.2 18.8 53 6.6 NE 37 44 20 24 1012.1 1012.1 0.0
23/02:00pm 30.7 31.0 19.7 52 7.2 NNE 17 24 9 13 1012.0 1012.0 0.0
23/01:30pm 30.5 31.4 19.2 51 7.4 NNE 13 20 7 11 1012.4 1012.4 0.0
23/01:00pm 30.3 29.1 12.7 34 10.4 ENE 11 15 6 8 1012.8 1012.8 0.0
23/12:30pm 29.8 28.4 10.9 31 10.8 SE 9 11 5 6 1013.2 1013.2 0.0
23/12:00pm 28.8 27.4 10.9 33 10.2 SE 9 11 5 6 1013.8 1013.8 0.0
23/11:30am 27.3 28.1 16.3 51 6.8 SSE 7 9 4 5 1014.2 1014.2 0.0
23/11:00am 27.2 28.6 17.7 56 6.0 SSE 7 9 4 5 1014.6 1014.6 0.0
23/10:30am 25.8 27.0 17.4 59 5.2 SSE 7 9 4 5 1014.9 1014.9 0.0
23/10:00am 25.4 26.4 17.8 62 4.8 SSE 9 11 5 6 1015.1 1015.1 0.0
23/09:30am 25.4 26.5 18.1 64 4.6 SSE 9 13 5 7 1015.3 1015.3 0.0
23/09:00am 24.4 24.9 17.4 65 4.3 S 11 15 6 8 1015.4 1015.4 0.0
23/08:30am 24.4 24.3 17.9 67 4.1 S 15 19 8 10 1015.3 1015.3 0.0
23/08:00am 23.7 23.0 17.4 68 3.9 S 17 19 9 10 1015.1 1015.1 0.0
23/07:30am 23.1 22.3 17.1 69 3.7 S 17 20 9 11 1014.8 1014.8 0.0
23/07:00am 22.6 22.1 17.9 75 2.9 S 17 20 9 11 1014.4 1014.4 0.0
23/06:30am 22.0 21.8 18.4 80 2.3 SSE 17 20 9 11 1013.9 1013.9 0.0
23/06:00am 21.8 21.1 18.2 80 2.2 SSE 19 20 10 11 1013.7 1013.7 0.0
23/05:30am 21.8 21.2 18.4 81 2.1 SSE 19 20 10 11 1013.6 1013.6 0.0
23/05:00am 21.8 21.6 18.6 82 2.0 SSE 17 20 9 11 1013.4 1013.4 0.0
23/04:30am 21.7 21.5 18.5 82 2.0 S 17 20 9 11 1013.1 1013.1 0.0
23/04:00am 21.8 21.6 18.4 81 2.1 S 17 20 9 11 1012.9 1012.9 0.0
23/03:30am 22.1 22.5 18.9 82 2.0 S 15 17 8 9 1012.9 1012.9 0.0
23/03:00am 22.3 22.8 19.3 83 1.9 S 15 19 8 10 1012.7 1012.7 0.0
23/02:30am 22.9 24.6 20.2 85 1.7 N 11 15 6 8 1012.8 1012.8 0.0
23/02:00am 22.5 23.7 19.1 81 2.2 NNW 11 13 6 7 1012.9 1012.9 0.0
23/01:30am 21.2 22.6 18.6 85 1.6 NNW 9 11 5 6 1012.9 1012.9 0.0
23/01:00am 21.1 24.2 18.7 86 1.5 CALM 0 0 0 0 1013.0 1013.0 0.0
23/12:30am 21.7 25.2 19.6 88 1.3 CALM 0 0 0 0 1012.9 1012.9 0.0
23/12:00am 21.5 23.7 18.3 82 2.0 NNW 4 6 2 3 1013.2 1013.2 0.0
 
Date/Time
CST
Temp
°C
App
Temp
°C
Dew
Point
Rel
Hum
%
Delta-T
°C
Wind Press
QNH
hPa
Press
MSL
hPa
Rain
since 9 am
mm
Dir
 
Spd
km/h
Gust
km/h
Spd
kts
Gust
kts
22/11:30pm 21.8 23.6 18.2 80 2.2 NNW 6 7 3 4 1013.4 1013.4 0.0
22/11:00pm 22.2 23.6 17.8 76 2.7 N 7 11 4 6 1013.6 1013.6 0.0
22/10:30pm 24.0 24.4 19.1 74 3.1 N 15 22 8 12 1013.6 1013.6 0.0
22/10:00pm 24.3 24.2 18.7 71 3.6 NNE 17 20 9 11 1013.8 1013.8 0.0
22/09:30pm 24.3 24.0 18.2 68 3.8 NE 17 20 9 11 1013.5 1013.5 0.0
22/09:00pm 24.4 23.6 17.9 67 4.1 NE 19 22 10 12 1013.5 1013.5 0.0
22/08:30pm 24.6 23.3 17.3 64 4.5 NE 20 26 11 14 1013.2 1013.2 0.0
22/08:00pm 24.7 22.7 16.4 60 5.1 NE 22 28 12 15 1012.9 1012.9 0.0
22/07:30pm 24.8 23.3 16.8 61 4.9 NE 20 28 11 15 1012.6 1012.6 0.0
22/07:00pm 24.9 22.2 15.5 56 5.7 ENE 24 28 13 15 1012.4 1012.4 0.0
22/06:30pm 25.2 22.2 14.9 52 6.2 NE 24 30 13 16 1012.1 1012.1 0.0
22/06:00pm 25.7 23.3 15.4 53 6.2 NE 22 28 12 15 1011.9 1011.9 0.0
22/05:30pm 26.6 24.5 15.3 50 6.9 NE 20 28 11 15 1011.6 1011.6 0.0
22/05:00pm 27.4 25.0 14.4 45 7.8 NNE 20 26 11 14 1011.5 1011.5 0.0
22/04:30pm 28.4 26.0 13.9 41 8.7 NE 19 26 10 14 1011.7 1011.7 0.0
22/04:00pm 29.6 26.2 9.2 28 11.4 ENE 17 22 9 12 1012.0 1012.0 0.0
22/03:30pm 30.2 25.8 9.1 27 11.8 E 22 28 12 15 1012.2 1012.2 0.0
22/03:00pm 30.0 24.9 7.8 25 12.1 E 24 30 13 16 1012.4 1012.4 0.0
22/02:30pm 30.4 25.7 9.3 27 11.8 E 24 32 13 17 1012.7 1012.7 0.0
22/02:00pm 30.1 24.5 10.1 29 11.3 E 30 37 16 20 1013.0 1013.0 0.0
22/01:30pm 29.9 24.2 9.9 29 11.3 E 30 35 16 19 1013.6 1013.6 0.0
22/01:00pm 29.5 23.5 10.1 30 11.0 E 32 37 17 20 1014.1 1014.1 0.0
22/12:30pm 29.6 23.8 10.7 31 10.8 ESE 32 37 17 20 1014.7 1014.7 0.0
22/12:00pm 28.8 22.5 9.0 29 10.9 ESE 32 37 17 20 1015.2 1015.2 0.0
22/11:30am 29.2 22.9 9.8 30 10.9 ESE 33 41 18 22 1015.6 1015.6 0.0
22/11:00am 28.4 21.8 10.1 32 10.3 ESE 35 43 19 23 1016.1 1016.1 0.0
22/10:30am 28.0 20.5 7.8 28 10.9 ESE 37 44 20 24 1016.5 1016.5 0.0
22/10:00am 27.8 22.6 10.1 33 9.9 ESE 28 32 15 17 1017.0 1017.0 0.0
22/09:30am 26.5 21.7 7.5 30 10.1 ESE 22 26 12 14 1017.2 1017.2 0.0
22/09:00am 25.7 20.0 6.8 30 9.9 SE 26 32 14 17 1017.2 1017.2 0.0
22/08:30am 25.4 20.0 8.0 33 9.3 SE 26 32 14 17 1017.0 1017.0 0.0
22/08:00am 24.6 18.6 10.1 40 8.0 SSE 32 39 17 21 1016.6 1016.6 0.0
22/07:30am 24.1 17.4 7.3 34 8.8 SE 32 39 17 21 1016.2 1016.2 0.0
22/07:00am 23.7 17.7 10.0 42 7.5 SSE 32 39 17 21 1015.8 1015.8 0.0
22/06:30am 23.5 17.7 10.9 45 7.0 SSE 32 39 17 21 1015.3 1015.3 0.0
22/06:00am 23.7 17.7 10.0 42 7.5 SSE 32 37 17 20 1014.9 1014.9 0.0
22/05:30am 23.9 18.6 9.9 41 7.7 SSE 28 33 15 18 1014.4 1014.4 0.0
22/05:00am 24.5 20.4 13.7 51 6.3 SSE 28 33 15 18 1014.0 1014.0 0.0
22/04:30am 23.7 21.8 15.7 61 4.8 S 20 26 11 14 1013.8 1013.8 0.0
22/04:00am 23.9 23.8 18.8 73 3.2 SSE 17 20 9 11 1013.8 1013.8 0.0
22/03:30am 23.9 24.6 19.6 77 2.8 S 15 17 8 9 1013.7 1013.7 0.0
22/03:00am 23.6 23.2 19.3 77 2.7 S 20 24 11 13 1014.0 1014.0 0.0
22/02:30am 23.8 22.8 19.7 78 2.6 S 24 30 13 16 1014.2 1014.2 0.0
22/02:00am 23.6 22.1 20.3 82 2.1 S 28 33 15 18 1014.2 1014.2 0.0
22/01:30am 23.6 23.5 21.5 88 1.4 S 24 28 13 15 1014.4 1014.4 0.0
22/01:00am 23.1 27.3 21.0 88 1.4 CALM 0 0 0 0 1014.3 1014.3 0.0
22/12:30am 23.6 26.6 20.9 85 1.8 NNE 6 9 3 5 1014.5 1014.5 0.0
22/12:00am 24.2 26.6 21.5 85 1.8 NNE 11 13 6 7 1014.6 1014.6 0.0
 
Date/Time
CST
Temp
°C
App
Temp
°C
Dew
Point
Rel
Hum
%
Delta-T
°C
Wind Press
QNH
hPa
Press
MSL
hPa
Rain
since 9 am
mm
Dir
 
Spd
km/h
Gust
km/h
Spd
kts
Gust
kts
21/11:30pm 24.5 25.8 21.6 84 1.9 NNE 17 20 9 11 1014.7 1014.7 0.0
21/11:00pm 24.6 25.8 21.5 83 2.1 NE 17 22 9 12 1014.7 1014.7 0.0
21/10:30pm 24.6 25.7 21.3 82 2.2 NNE 17 24 9 13 1014.5 1014.5 0.0
21/10:00pm 24.6 24.9 20.7 79 2.6 NE 20 26 11 14 1014.6 1014.6 0.0
21/09:30pm 24.8 25.1 20.7 78 2.7 NE 20 26 11 14 1014.8 1014.8 0.0
21/09:00pm 24.8 24.5 20.3 76 2.9 NE 22 28 12 15 1014.6 1014.6 0.0
21/08:30pm 24.9 24.2 20.2 75 3.1 NE 24 30 13 16 1014.4 1014.4 0.0
21/08:00pm 25.0 24.4 19.8 73 3.4 NE 22 28 12 15 1014.1 1014.1 0.0
21/07:30pm 25.1 24.0 19.5 71 3.6 NE 24 30 13 16 1013.9 1013.9 0.0
21/07:00pm 25.3 24.1 19.2 69 3.9 NE 24 30 13 16 1013.8 1013.8 0.0
21/06:30pm 25.7 24.6 18.6 65 4.5 NE 22 28 12 15 1013.7 1013.7 0.0
21/06:00pm 26.3 24.9 17.9 60 5.3 NE 22 28 12 15 1013.6 1013.6 0.0
21/05:30pm 27.2 25.7 17.7 56 6.0 ENE 22 28 12 15 1013.3 1013.3 0.0
21/05:00pm 28.0 25.8 16.9 51 6.9 E 24 30 13 16 1013.1 1013.1 0.0
21/04:30pm 28.8 27.0 17.0 49 7.4 E 22 28 12 15 1013.2 1013.2 0.0
21/04:00pm 29.3 27.4 16.8 47 7.8 E 22 26 12 14 1013.0 1013.0 0.0
21/03:30pm 29.5 27.3 16.0 44 8.4 E 22 26 12 14 1012.9 1012.9 0.0
21/03:00pm 29.8 27.9 17.6 48 7.8 E 24 32 13 17 1013.1 1013.1 0.0
21/02:30pm 29.2 27.6 19.2 54 6.5 ESE 26 32 14 17 1013.2 1013.2 0.0
21/02:00pm 29.2 27.0 19.5 56 6.3 ESE 30 35 16 19 1013.4 1013.4 0.0
21/01:30pm 28.8 26.2 19.4 56 6.1 ESE 32 37 17 20 1014.1 1014.1 0.0
21/01:00pm 28.8 26.5 20.5 61 5.5 ESE 33 37 18 20 1014.5 1014.5 0.0
21/12:30pm 28.7 26.5 20.7 62 5.3 ESE 33 39 18 21 1015.0 1015.0 0.0
21/12:00pm 28.3 26.3 20.8 63 5.0 ESE 32 37 17 20 1015.3 1015.3 0.0

Other Formats:

Comma delimited format used in spreadsheet applications
http://www.bom.gov.au/fwo/IDD60801/IDD60801.94248.axf

JavaScript Object Notation format (JSON) in row-major order
http://www.bom.gov.au/fwo/IDD60801/IDD60801.94248.json